sensor_id;sensor_type;location;lat;lon;timestamp;temperature;humidity
19880;DHT22;10102;50.828;4.416;2022-09-09T00:02:18;15.80;99.90
19880;DHT22;10102;50.828;4.416;2022-09-09T00:07:30;15.80;99.90
19880;DHT22;10102;50.828;4.416;2022-09-09T00:15:14;15.80;99.90
19880;DHT22;10102;50.828;4.416;2022-09-09T00:17:56;15.70;99.90
19880;DHT22;10102;50.828;4.416;2022-09-09T00:20:40;15.80;99.90
19880;DHT22;10102;50.828;4.416;2022-09-09T00:28:25;15.50;99.90
19880;DHT22;10102;50.828;4.416;2022-09-09T00:30:52;15.60;99.90
19880;DHT22;10102;50.828;4.416;2022-09-09T00:33:22;15.90;99.90
19880;DHT22;10102;50.828;4.416;2022-09-09T00:35:51;15.80;99.90
19880;DHT22;10102;50.828;4.416;2022-09-09T00:38:23;15.80;99.90
19880;DHT22;10102;50.828;4.416;2022-09-09T00:40:55;15.80;99.90
19880;DHT22;10102;50.828;4.416;2022-09-09T00:43:32;15.70;99.90
19880;DHT22;10102;50.828;4.416;2022-09-09T00:57:32;15.80;99.90
19880;DHT22;10102;50.828;4.416;2022-09-09T01:06:11;15.90;99.90
19880;DHT22;10102;50.828;4.416;2022-09-09T01:11:05;15.80;99.90
19880;DHT22;10102;50.828;4.416;2022-09-09T01:13:34;15.80;99.90
19880;DHT22;10102;50.828;4.416;2022-09-09T01:16:04;15.90;99.90
19880;DHT22;10102;50.828;4.416;2022-09-09T01:18:52;15.90;99.90
19880;DHT22;10102;50.828;4.416;2022-09-09T01:24:15;16.00;99.90
19880;DHT22;10102;50.828;4.416;2022-09-09T01:26:45;16.20;99.90
19880;DHT22;10102;50.828;4.416;2022-09-09T01:29:16;16.40;99.90
19880;DHT22;10102;50.828;4.416;2022-09-09T01:34:21;15.90;99.90
19880;DHT22;10102;50.828;4.416;2022-09-09T01:39:19;16.00;99.90
19880;DHT22;10102;50.828;4.416;2022-09-09T01:41:45;15.90;99.90
19880;DHT22;10102;50.828;4.416;2022-09-09T01:49:05;15.80;99.90
19880;DHT22;10102;50.828;4.416;2022-09-09T01:51:33;15.90;99.90
19880;DHT22;10102;50.828;4.416;2022-09-09T01:53:59;15.90;99.90
19880;DHT22;10102;50.828;4.416;2022-09-09T02:01:57;15.50;99.90
19880;DHT22;10102;50.828;4.416;2022-09-09T02:07:01;15.80;99.90
19880;DHT22;10102;50.828;4.416;2022-09-09T02:09:29;15.70;99.90
19880;DHT22;10102;50.828;4.416;2022-09-09T02:12:22;15.90;99.90
19880;DHT22;10102;50.828;4.416;2022-09-09T02:14:54;15.80;99.90
19880;DHT22;10102;50.828;4.416;2022-09-09T02:17:27;16.00;99.90
19880;DHT22;10102;50.828;4.416;2022-09-09T02:20:27;15.90;99.90
19880;DHT22;10102;50.828;4.416;2022-09-09T02:22:56;15.70;99.90
19880;DHT22;10102;50.828;4.416;2022-09-09T02:25:24;15.60;99.90
19880;DHT22;10102;50.828;4.416;2022-09-09T02:27:51;15.60;99.90
19880;DHT22;10102;50.828;4.416;2022-09-09T02:30:18;15.60;99.90
19880;DHT22;10102;50.828;4.416;2022-09-09T02:32:47;15.70;99.90
19880;DHT22;10102;50.828;4.416;2022-09-09T02:35:17;15.80;99.90
19880;DHT22;10102;50.828;4.416;2022-09-09T02:37:44;15.80;99.90
19880;DHT22;10102;50.828;4.416;2022-09-09T02:40:14;15.90;99.90
19880;DHT22;10102;50.828;4.416;2022-09-09T02:42:45;15.70;99.90
19880;DHT22;10102;50.828;4.416;2022-09-09T02:45:15;15.80;99.90
19880;DHT22;10102;50.828;4.416;2022-09-09T02:48:03;15.60;99.90
19880;DHT22;10102;50.828;4.416;2022-09-09T02:50:45;15.60;99.90
19880;DHT22;10102;50.828;4.416;2022-09-09T02:53:18;15.80;99.90
19880;DHT22;10102;50.828;4.416;2022-09-09T02:56:00;15.80;99.90
19880;DHT22;10102;50.828;4.416;2022-09-09T02:58:29;15.70;99.90
19880;DHT22;10102;50.828;4.416;2022-09-09T03:00:56;15.70;99.90
19880;DHT22;10102;50.828;4.416;2022-09-09T03:03:23;15.80;99.90
19880;DHT22;10102;50.828;4.416;2022-09-09T03:05:49;15.80;99.90
19880;DHT22;10102;50.828;4.416;2022-09-09T03:08:15;15.90;99.90
19880;DHT22;10102;50.828;4.416;2022-09-09T03:10:41;15.80;99.90
19880;DHT22;10102;50.828;4.416;2022-09-09T03:13:07;15.70;99.90
19880;DHT22;10102;50.828;4.416;2022-09-09T03:15:33;15.90;99.90
19880;DHT22;10102;50.828;4.416;2022-09-09T03:18:00;15.90;99.90
19880;DHT22;10102;50.828;4.416;2022-09-09T03:20:27;15.70;99.90
19880;DHT22;10102;50.828;4.416;2022-09-09T03:22:53;15.90;99.90
19880;DHT22;10102;50.828;4.416;2022-09-09T03:25:20;15.70;99.90
19880;DHT22;10102;50.828;4.416;2022-09-09T03:27:48;15.70;99.90
19880;DHT22;10102;50.828;4.416;2022-09-09T03:30:15;15.80;99.90
19880;DHT22;10102;50.828;4.416;2022-09-09T03:32:41;15.60;99.90
19880;DHT22;10102;50.828;4.416;2022-09-09T03:35:07;15.70;99.90
19880;DHT22;10102;50.828;4.416;2022-09-09T03:37:33;15.80;99.90
19880;DHT22;10102;50.828;4.416;2022-09-09T03:39:59;16.00;99.90
19880;DHT22;10102;50.828;4.416;2022-09-09T03:42:25;15.80;99.90
19880;DHT22;10102;50.828;4.416;2022-09-09T03:44:51;15.40;99.90
19880;DHT22;10102;50.828;4.416;2022-09-09T03:47:20;15.60;99.90
19880;DHT22;10102;50.828;4.416;2022-09-09T03:49:47;15.50;99.90
19880;DHT22;10102;50.828;4.416;2022-09-09T03:52:14;15.50;99.90
19880;DHT22;10102;50.828;4.416;2022-09-09T03:54:40;15.60;99.90
19880;DHT22;10102;50.828;4.416;2022-09-09T03:57:06;15.60;99.90
19880;DHT22;10102;50.828;4.416;2022-09-09T03:59:32;15.90;99.90
19880;DHT22;10102;50.828;4.416;2022-09-09T04:04:24;15.60;99.90
19880;DHT22;10102;50.828;4.416;2022-09-09T04:06:52;15.60;99.90
19880;DHT22;10102;50.828;4.416;2022-09-09T04:09:18;15.60;99.90
19880;DHT22;10102;50.828;4.416;2022-09-09T04:11:43;15.90;99.90
19880;DHT22;10102;50.828;4.416;2022-09-09T04:14:09;15.80;99.90
19880;DHT22;10102;50.828;4.416;2022-09-09T04:16:35;16.00;99.90
19880;DHT22;10102;50.828;4.416;2022-09-09T04:19:04;15.90;99.90
19880;DHT22;10102;50.828;4.416;2022-09-09T04:21:32;15.80;99.90
19880;DHT22;10102;50.828;4.416;2022-09-09T04:23:57;15.70;99.90
19880;DHT22;10102;50.828;4.416;2022-09-09T04:26:23;15.70;99.90
19880;DHT22;10102;50.828;4.416;2022-09-09T04:28:49;15.90;99.90
19880;DHT22;10102;50.828;4.416;2022-09-09T04:31:21;15.40;99.90
19880;DHT22;10102;50.828;4.416;2022-09-09T04:33:49;15.60;99.90
19880;DHT22;10102;50.828;4.416;2022-09-09T04:36:15;15.70;99.90
19880;DHT22;10102;50.828;4.416;2022-09-09T04:38:41;15.70;99.90
19880;DHT22;10102;50.828;4.416;2022-09-09T04:41:07;15.70;99.90
19880;DHT22;10102;50.828;4.416;2022-09-09T04:43:33;15.30;99.90
19880;DHT22;10102;50.828;4.416;2022-09-09T04:45:59;15.50;99.90
19880;DHT22;10102;50.828;4.416;2022-09-09T04:48:25;15.60;99.90
19880;DHT22;10102;50.828;4.416;2022-09-09T04:50:56;15.70;99.90
19880;DHT22;10102;50.828;4.416;2022-09-09T04:53:22;15.70;99.90
19880;DHT22;10102;50.828;4.416;2022-09-09T04:55:48;15.50;99.90
19880;DHT22;10102;50.828;4.416;2022-09-09T04:58:14;15.60;99.90
19880;DHT22;10102;50.828;4.416;2022-09-09T05:03:08;15.70;99.90
19880;DHT22;10102;50.828;4.416;2022-09-09T05:05:37;15.80;99.90
19880;DHT22;10102;50.828;4.416;2022-09-09T05:08:04;15.70;99.90
19880;DHT22;10102;50.828;4.416;2022-09-09T05:10:31;15.70;99.90
19880;DHT22;10102;50.828;4.416;2022-09-09T05:12:57;15.70;99.90
19880;DHT22;10102;50.828;4.416;2022-09-09T05:15:23;15.70;99.90
19880;DHT22;10102;50.828;4.416;2022-09-09T05:17:50;15.60;99.90
19880;DHT22;10102;50.828;4.416;2022-09-09T05:20:18;15.80;99.90
19880;DHT22;10102;50.828;4.416;2022-09-09T05:25:10;15.80;99.90
19880;DHT22;10102;50.828;4.416;2022-09-09T05:30:01;15.80;99.90
19880;DHT22;10102;50.828;4.416;2022-09-09T05:32:29;15.90;99.90
19880;DHT22;10102;50.828;4.416;2022-09-09T05:34:57;16.30;99.90
19880;DHT22;10102;50.828;4.416;2022-09-09T05:37:24;16.20;99.90
19880;DHT22;10102;50.828;4.416;2022-09-09T05:39:49;16.10;99.90
19880;DHT22;10102;50.828;4.416;2022-09-09T05:42:15;16.10;99.90
19880;DHT22;10102;50.828;4.416;2022-09-09T05:44:41;16.40;99.90
19880;DHT22;10102;50.828;4.416;2022-09-09T05:47:08;16.00;99.90
19880;DHT22;10102;50.828;4.416;2022-09-09T05:49:34;16.10;99.90
19880;DHT22;10102;50.828;4.416;2022-09-09T05:52:00;16.00;99.90
19880;DHT22;10102;50.828;4.416;2022-09-09T05:54:27;15.90;99.90
19880;DHT22;10102;50.828;4.416;2022-09-09T05:56:52;15.90;99.90
19880;DHT22;10102;50.828;4.416;2022-09-09T05:59:19;16.00;99.90
19880;DHT22;10102;50.828;4.416;2022-09-09T06:01:46;16.00;99.90
19880;DHT22;10102;50.828;4.416;2022-09-09T06:06:38;16.00;99.90
19880;DHT22;10102;50.828;4.416;2022-09-09T06:09:09;16.20;99.90
19880;DHT22;10102;50.828;4.416;2022-09-09T06:11:39;16.20;99.90
19880;DHT22;10102;50.828;4.416;2022-09-09T06:14:05;16.30;99.90
19880;DHT22;10102;50.828;4.416;2022-09-09T06:16:31;16.30;99.90
19880;DHT22;10102;50.828;4.416;2022-09-09T06:19:01;16.40;99.90
19880;DHT22;10102;50.828;4.416;2022-09-09T06:21:35;16.30;99.90
19880;DHT22;10102;50.828;4.416;2022-09-09T06:24:05;16.20;99.90
19880;DHT22;10102;50.828;4.416;2022-09-09T06:26:34;16.50;99.90
19880;DHT22;10102;50.828;4.416;2022-09-09T06:29:02;16.50;99.90
19880;DHT22;10102;50.828;4.416;2022-09-09T06:31:31;16.50;99.90
19880;DHT22;10102;50.828;4.416;2022-09-09T06:33:58;16.60;99.90
19880;DHT22;10102;50.828;4.416;2022-09-09T06:36:29;16.70;99.90
19880;DHT22;10102;50.828;4.416;2022-09-09T06:38:55;16.90;99.90
19880;DHT22;10102;50.828;4.416;2022-09-09T06:41:24;16.90;99.90
19880;DHT22;10102;50.828;4.416;2022-09-09T06:43:55;17.00;99.90
19880;DHT22;10102;50.828;4.416;2022-09-09T06:46:26;17.00;99.90
19880;DHT22;10102;50.828;4.416;2022-09-09T06:48:54;17.00;99.90
19880;DHT22;10102;50.828;4.416;2022-09-09T06:51:22;17.10;99.90
19880;DHT22;10102;50.828;4.416;2022-09-09T06:53:50;17.10;99.90
19880;DHT22;10102;50.828;4.416;2022-09-09T06:58:43;16.90;99.90
19880;DHT22;10102;50.828;4.416;2022-09-09T07:01:11;17.00;99.90
19880;DHT22;10102;50.828;4.416;2022-09-09T07:03:41;17.20;99.90
19880;DHT22;10102;50.828;4.416;2022-09-09T07:06:12;17.30;99.90
19880;DHT22;10102;50.828;4.416;2022-09-09T07:08:40;17.40;99.90
19880;DHT22;10102;50.828;4.416;2022-09-09T07:11:08;19.00;99.90
19880;DHT22;10102;50.828;4.416;2022-09-09T07:13:35;17.40;99.90
19880;DHT22;10102;50.828;4.416;2022-09-09T07:16:09;17.50;99.90
19880;DHT22;10102;50.828;4.416;2022-09-09T07:18:35;17.40;99.90
19880;DHT22;10102;50.828;4.416;2022-09-09T07:21:03;17.40;99.90
19880;DHT22;10102;50.828;4.416;2022-09-09T07:23:30;17.60;99.90
19880;DHT22;10102;50.828;4.416;2022-09-09T07:25:57;17.60;99.90
19880;DHT22;10102;50.828;4.416;2022-09-09T07:28:24;17.70;99.90
19880;DHT22;10102;50.828;4.416;2022-09-09T07:31:00;17.60;99.90
19880;DHT22;10102;50.828;4.416;2022-09-09T07:36:05;17.50;99.90
19880;DHT22;10102;50.828;4.416;2022-09-09T07:41:08;17.30;99.90
19880;DHT22;10102;50.828;4.416;2022-09-09T07:46:04;16.90;99.90
19880;DHT22;10102;50.828;4.416;2022-09-09T07:48:32;16.80;99.90
19880;DHT22;10102;50.828;4.416;2022-09-09T07:51:28;16.70;99.90
19880;DHT22;10102;50.828;4.416;2022-09-09T07:54:00;16.60;99.90
19880;DHT22;10102;50.828;4.416;2022-09-09T07:56:28;16.70;99.90
19880;DHT22;10102;50.828;4.416;2022-09-09T07:58:55;16.80;99.90
19880;DHT22;10102;50.828;4.416;2022-09-09T08:01:32;16.80;99.90
19880;DHT22;10102;50.828;4.416;2022-09-09T08:04:03;16.70;99.90
19880;DHT22;10102;50.828;4.416;2022-09-09T08:06:34;17.00;99.90
19880;DHT22;10102;50.828;4.416;2022-09-09T08:09:02;16.90;99.90
19880;DHT22;10102;50.828;4.416;2022-09-09T08:11:29;16.80;99.90
19880;DHT22;10102;50.828;4.416;2022-09-09T08:13:55;17.10;99.90
19880;DHT22;10102;50.828;4.416;2022-09-09T08:16:23;17.10;99.90
19880;DHT22;10102;50.828;4.416;2022-09-09T08:18:53;17.10;99.90
19880;DHT22;10102;50.828;4.416;2022-09-09T08:21:25;17.50;99.90
19880;DHT22;10102;50.828;4.416;2022-09-09T08:23:54;17.90;99.90
19880;DHT22;10102;50.828;4.416;2022-09-09T08:26:35;19.50;99.90
19880;DHT22;10102;50.828;4.416;2022-09-09T08:29:03;18.20;99.90
19880;DHT22;10102;50.828;4.416;2022-09-09T08:31:32;18.20;99.90
19880;DHT22;10102;50.828;4.416;2022-09-09T08:33:59;18.20;99.90
19880;DHT22;10102;50.828;4.416;2022-09-09T08:36:26;18.10;99.90
19880;DHT22;10102;50.828;4.416;2022-09-09T08:38:56;18.00;99.90
19880;DHT22;10102;50.828;4.416;2022-09-09T08:50:28;17.90;99.90
19880;DHT22;10102;50.828;4.416;2022-09-09T08:58:23;17.60;99.90
19880;DHT22;10102;50.828;4.416;2022-09-09T09:08:43;18.10;99.90
19880;DHT22;10102;50.828;4.416;2022-09-09T09:11:13;18.00;99.90
19880;DHT22;10102;50.828;4.416;2022-09-09T09:13:52;17.90;99.90
19880;DHT22;10102;50.828;4.416;2022-09-09T09:18:49;18.60;99.90
19880;DHT22;10102;50.828;4.416;2022-09-09T09:21:31;17.70;99.90
19880;DHT22;10102;50.828;4.416;2022-09-09T09:24:01;17.60;99.90
19880;DHT22;10102;50.828;4.416;2022-09-09T09:26:34;17.60;99.90
19880;DHT22;10102;50.828;4.416;2022-09-09T09:29:14;17.60;99.90
19880;DHT22;10102;50.828;4.416;2022-09-09T09:32:01;17.60;99.90
19880;DHT22;10102;50.828;4.416;2022-09-09T09:34:28;17.70;99.90
19880;DHT22;10102;50.828;4.416;2022-09-09T09:39:25;17.70;99.90
19880;DHT22;10102;50.828;4.416;2022-09-09T09:41:52;17.90;99.90
19880;DHT22;10102;50.828;4.416;2022-09-09T09:46:51;17.60;99.90
19880;DHT22;10102;50.828;4.416;2022-09-09T09:49:17;17.80;99.90
19880;DHT22;10102;50.828;4.416;2022-09-09T09:51:43;17.80;99.90
19880;DHT22;10102;50.828;4.416;2022-09-09T09:54:28;17.80;99.90
19880;DHT22;10102;50.828;4.416;2022-09-09T09:56:55;17.50;99.90
19880;DHT22;10102;50.828;4.416;2022-09-09T10:02:16;17.70;99.90
19880;DHT22;10102;50.828;4.416;2022-09-09T10:04:45;18.10;99.90
19880;DHT22;10102;50.828;4.416;2022-09-09T10:07:15;18.10;99.90
19880;DHT22;10102;50.828;4.416;2022-09-09T10:09:42;18.30;99.90
19880;DHT22;10102;50.828;4.416;2022-09-09T10:15:18;18.30;99.90
19880;DHT22;10102;50.828;4.416;2022-09-09T10:29:51;17.90;99.90
19880;DHT22;10102;50.828;4.416;2022-09-09T10:51:50;19.20;99.90
19880;DHT22;10102;50.828;4.416;2022-09-09T10:54:35;19.30;99.90
19880;DHT22;10102;50.828;4.416;2022-09-09T10:57:08;19.60;99.90
19880;DHT22;10102;50.828;4.416;2022-09-09T10:59:48;19.90;99.90
19880;DHT22;10102;50.828;4.416;2022-09-09T11:02:22;19.80;99.90
19880;DHT22;10102;50.828;4.416;2022-09-09T11:04:57;19.90;99.90
19880;DHT22;10102;50.828;4.416;2022-09-09T11:07:43;20.20;99.90
19880;DHT22;10102;50.828;4.416;2022-09-09T11:13:18;20.30;99.90
19880;DHT22;10102;50.828;4.416;2022-09-09T11:15:52;20.00;99.90
19880;DHT22;10102;50.828;4.416;2022-09-09T11:18:21;20.20;99.90
19880;DHT22;10102;50.828;4.416;2022-09-09T11:20:56;20.20;99.90
19880;DHT22;10102;50.828;4.416;2022-09-09T11:23:38;20.80;99.90
19880;DHT22;10102;50.828;4.416;2022-09-09T11:26:08;21.00;99.90
19880;DHT22;10102;50.828;4.416;2022-09-09T11:34:39;20.20;99.90
19880;DHT22;10102;50.828;4.416;2022-09-09T11:37:17;20.20;99.90
19880;DHT22;10102;50.828;4.416;2022-09-09T11:42:40;20.20;99.90
19880;DHT22;10102;50.828;4.416;2022-09-09T11:45:26;20.10;99.90
19880;DHT22;10102;50.828;4.416;2022-09-09T11:47:57;19.80;99.90
19880;DHT22;10102;50.828;4.416;2022-09-09T11:52:49;19.90;99.90
19880;DHT22;10102;50.828;4.416;2022-09-09T11:55:31;19.80;99.90
19880;DHT22;10102;50.828;4.416;2022-09-09T11:58:03;19.80;99.90
19880;DHT22;10102;50.828;4.416;2022-09-09T12:00:41;19.90;99.90
19880;DHT22;10102;50.828;4.416;2022-09-09T12:05:57;19.80;99.90
19880;DHT22;10102;50.828;4.416;2022-09-09T12:08:28;19.80;99.90
19880;DHT22;10102;50.828;4.416;2022-09-09T12:10:58;19.80;99.90
19880;DHT22;10102;50.828;4.416;2022-09-09T12:13:28;19.90;99.90
19880;DHT22;10102;50.828;4.416;2022-09-09T12:16:00;19.90;99.90
19880;DHT22;10102;50.828;4.416;2022-09-09T12:18:38;20.10;99.90
19880;DHT22;10102;50.828;4.416;2022-09-09T12:23:58;19.60;99.90
19880;DHT22;10102;50.828;4.416;2022-09-09T12:26:36;19.50;99.90
19880;DHT22;10102;50.828;4.416;2022-09-09T12:32:11;19.70;99.90
19880;DHT22;10102;50.828;4.416;2022-09-09T12:37:29;20.10;99.90
19880;DHT22;10102;50.828;4.416;2022-09-09T12:39:58;20.30;99.90
19880;DHT22;10102;50.828;4.416;2022-09-09T12:42:26;21.20;99.90
19880;DHT22;10102;50.828;4.416;2022-09-09T12:44:53;21.70;99.90
19880;DHT22;10102;50.828;4.416;2022-09-09T12:47:36;21.60;99.90
19880;DHT22;10102;50.828;4.416;2022-09-09T12:50:04;21.70;99.90
19880;DHT22;10102;50.828;4.416;2022-09-09T12:52:33;21.40;99.90
19880;DHT22;10102;50.828;4.416;2022-09-09T12:55:02;21.60;99.90
19880;DHT22;10102;50.828;4.416;2022-09-09T12:57:34;21.50;99.90
19880;DHT22;10102;50.828;4.416;2022-09-09T13:00:17;21.70;99.90
19880;DHT22;10102;50.828;4.416;2022-09-09T13:02:56;22.30;99.90
19880;DHT22;10102;50.828;4.416;2022-09-09T13:07:51;22.90;99.90
19880;DHT22;10102;50.828;4.416;2022-09-09T13:10:26;23.00;99.90
19880;DHT22;10102;50.828;4.416;2022-09-09T13:12:55;22.90;99.90
19880;DHT22;10102;50.828;4.416;2022-09-09T13:15:23;23.10;99.90
19880;DHT22;10102;50.828;4.416;2022-09-09T13:17:57;22.40;99.90
19880;DHT22;10102;50.828;4.416;2022-09-09T13:20:24;22.20;99.90
19880;DHT22;10102;50.828;4.416;2022-09-09T13:22:51;22.20;99.90
19880;DHT22;10102;50.828;4.416;2022-09-09T13:25:25;22.30;99.90
19880;DHT22;10102;50.828;4.416;2022-09-09T13:28:18;22.20;99.90
19880;DHT22;10102;50.828;4.416;2022-09-09T13:31:17;22.40;99.90
19880;DHT22;10102;50.828;4.416;2022-09-09T13:33:44;22.90;99.90
19880;DHT22;10102;50.828;4.416;2022-09-09T13:36:11;23.10;99.90
19880;DHT22;10102;50.828;4.416;2022-09-09T13:39:02;22.70;99.90
19880;DHT22;10102;50.828;4.416;2022-09-09T13:41:35;22.20;99.90
19880;DHT22;10102;50.828;4.416;2022-09-09T13:44:03;22.10;99.90
19880;DHT22;10102;50.828;4.416;2022-09-09T13:46:40;22.40;99.90
19880;DHT22;10102;50.828;4.416;2022-09-09T13:51:49;22.40;99.90
19880;DHT22;10102;50.828;4.416;2022-09-09T13:54:20;22.40;99.90
19880;DHT22;10102;50.828;4.416;2022-09-09T13:56:46;22.60;99.90
19880;DHT22;10102;50.828;4.416;2022-09-09T13:59:14;22.50;99.90
19880;DHT22;10102;50.828;4.416;2022-09-09T14:01:41;21.90;99.90
19880;DHT22;10102;50.828;4.416;2022-09-09T14:04:07;21.70;99.90
19880;DHT22;10102;50.828;4.416;2022-09-09T14:09:03;21.80;99.90
19880;DHT22;10102;50.828;4.416;2022-09-09T14:11:29;21.50;99.90
19880;DHT22;10102;50.828;4.416;2022-09-09T14:13:55;21.90;99.90
19880;DHT22;10102;50.828;4.416;2022-09-09T14:16:21;22.00;99.90
19880;DHT22;10102;50.828;4.416;2022-09-09T14:18:47;21.90;99.90
19880;DHT22;10102;50.828;4.416;2022-09-09T14:21:13;21.60;99.90
19880;DHT22;10102;50.828;4.416;2022-09-09T14:23:41;21.50;99.90
19880;DHT22;10102;50.828;4.416;2022-09-09T14:26:07;21.20;99.90
19880;DHT22;10102;50.828;4.416;2022-09-09T14:28:35;21.30;99.90
19880;DHT22;10102;50.828;4.416;2022-09-09T14:31:03;21.10;99.90
19880;DHT22;10102;50.828;4.416;2022-09-09T14:33:30;21.30;99.90
19880;DHT22;10102;50.828;4.416;2022-09-09T14:35:58;21.50;99.90
19880;DHT22;10102;50.828;4.416;2022-09-09T14:38:24;22.00;99.90
19880;DHT22;10102;50.828;4.416;2022-09-09T14:40:50;22.20;99.90
19880;DHT22;10102;50.828;4.416;2022-09-09T14:43:16;22.90;99.90
19880;DHT22;10102;50.828;4.416;2022-09-09T14:45:41;23.00;99.90
19880;DHT22;10102;50.828;4.416;2022-09-09T14:48:09;22.90;99.90
19880;DHT22;10102;50.828;4.416;2022-09-09T14:53:05;22.90;99.90
19880;DHT22;10102;50.828;4.416;2022-09-09T14:55:31;23.40;99.90
19880;DHT22;10102;50.828;4.416;2022-09-09T14:57:57;23.50;99.90
19880;DHT22;10102;50.828;4.416;2022-09-09T15:00:24;22.80;99.90
19880;DHT22;10102;50.828;4.416;2022-09-09T15:02:52;23.00;99.90
19880;DHT22;10102;50.828;4.416;2022-09-09T15:05:18;22.90;99.90
19880;DHT22;10102;50.828;4.416;2022-09-09T15:07:45;23.00;99.90
19880;DHT22;10102;50.828;4.416;2022-09-09T15:10:12;23.20;99.90
19880;DHT22;10102;50.828;4.416;2022-09-09T15:12:38;23.90;99.90
19880;DHT22;10102;50.828;4.416;2022-09-09T15:15:04;23.90;99.90
19880;DHT22;10102;50.828;4.416;2022-09-09T15:17:30;23.80;99.90
19880;DHT22;10102;50.828;4.416;2022-09-09T15:19:57;24.20;99.90
19880;DHT22;10102;50.828;4.416;2022-09-09T15:22:23;24.30;99.90
19880;DHT22;10102;50.828;4.416;2022-09-09T15:24:51;24.30;99.90
19880;DHT22;10102;50.828;4.416;2022-09-09T15:27:23;24.60;99.90
19880;DHT22;10102;50.828;4.416;2022-09-09T15:29:49;23.90;99.90
19880;DHT22;10102;50.828;4.416;2022-09-09T15:32:17;24.00;99.90
19880;DHT22;10102;50.828;4.416;2022-09-09T15:34:42;23.50;99.90
19880;DHT22;10102;50.828;4.416;2022-09-09T15:37:10;22.90;99.90
19880;DHT22;10102;50.828;4.416;2022-09-09T15:39:39;22.60;99.90
19880;DHT22;10102;50.828;4.416;2022-09-09T15:42:06;22.60;99.90
19880;DHT22;10102;50.828;4.416;2022-09-09T15:44:42;22.10;99.90
19880;DHT22;10102;50.828;4.416;2022-09-09T15:47:09;21.80;99.90
19880;DHT22;10102;50.828;4.416;2022-09-09T15:49:35;22.50;99.90
19880;DHT22;10102;50.828;4.416;2022-09-09T15:52:03;23.30;99.90
19880;DHT22;10102;50.828;4.416;2022-09-09T15:54:32;24.00;99.90
19880;DHT22;10102;50.828;4.416;2022-09-09T15:57:01;24.20;99.90
19880;DHT22;10102;50.828;4.416;2022-09-09T15:59:28;25.60;99.90
19880;DHT22;10102;50.828;4.416;2022-09-09T16:01:55;27.20;99.90
19880;DHT22;10102;50.828;4.416;2022-09-09T16:04:22;27.10;99.90
19880;DHT22;10102;50.828;4.416;2022-09-09T16:06:53;25.30;99.90
19880;DHT22;10102;50.828;4.416;2022-09-09T16:09:20;25.40;99.90
19880;DHT22;10102;50.828;4.416;2022-09-09T16:11:46;22.90;99.90
19880;DHT22;10102;50.828;4.416;2022-09-09T16:14:13;22.40;99.90
19880;DHT22;10102;50.828;4.416;2022-09-09T16:16:41;22.30;99.90
19880;DHT22;10102;50.828;4.416;2022-09-09T16:19:11;22.00;99.90
19880;DHT22;10102;50.828;4.416;2022-09-09T16:21:40;21.90;99.90
19880;DHT22;10102;50.828;4.416;2022-09-09T16:24:08;21.50;99.90
19880;DHT22;10102;50.828;4.416;2022-09-09T16:26:36;21.40;99.90
19880;DHT22;10102;50.828;4.416;2022-09-09T16:29:02;20.80;99.90
19880;DHT22;10102;50.828;4.416;2022-09-09T16:31:29;19.40;99.90
19880;DHT22;10102;50.828;4.416;2022-09-09T16:33:57;19.20;99.90
19880;DHT22;10102;50.828;4.416;2022-09-09T16:36:28;18.80;99.90
19880;DHT22;10102;50.828;4.416;2022-09-09T16:38:59;18.60;99.90
19880;DHT22;10102;50.828;4.416;2022-09-09T16:41:27;18.70;99.90
19880;DHT22;10102;50.828;4.416;2022-09-09T16:44:00;18.80;99.90
19880;DHT22;10102;50.828;4.416;2022-09-09T16:46:30;18.70;99.90
19880;DHT22;10102;50.828;4.416;2022-09-09T16:48:58;18.80;99.90
19880;DHT22;10102;50.828;4.416;2022-09-09T16:51:29;18.80;99.90
19880;DHT22;10102;50.828;4.416;2022-09-09T16:53:58;18.70;99.90
19880;DHT22;10102;50.828;4.416;2022-09-09T16:56:29;18.90;99.90
19880;DHT22;10102;50.828;4.416;2022-09-09T16:59:00;18.40;99.90
19880;DHT22;10102;50.828;4.416;2022-09-09T17:01:29;18.20;99.90
19880;DHT22;10102;50.828;4.416;2022-09-09T17:04:01;18.10;99.90
19880;DHT22;10102;50.828;4.416;2022-09-09T17:06:28;17.90;99.90
19880;DHT22;10102;50.828;4.416;2022-09-09T17:08:57;17.80;99.90
19880;DHT22;10102;50.828;4.416;2022-09-09T17:11:23;17.90;99.90
19880;DHT22;10102;50.828;4.416;2022-09-09T17:13:50;17.90;99.90
19880;DHT22;10102;50.828;4.416;2022-09-09T17:16:20;18.20;99.90
19880;DHT22;10102;50.828;4.416;2022-09-09T17:18:50;18.10;99.90
19880;DHT22;10102;50.828;4.416;2022-09-09T17:21:20;18.10;99.90
19880;DHT22;10102;50.828;4.416;2022-09-09T17:26:16;18.70;99.90
19880;DHT22;10102;50.828;4.416;2022-09-09T17:28:43;18.20;99.90
19880;DHT22;10102;50.828;4.416;2022-09-09T17:31:13;18.30;99.90
19880;DHT22;10102;50.828;4.416;2022-09-09T17:33:43;18.10;99.90
19880;DHT22;10102;50.828;4.416;2022-09-09T17:38:37;18.00;99.90
19880;DHT22;10102;50.828;4.416;2022-09-09T17:41:07;18.00;99.90
19880;DHT22;10102;50.828;4.416;2022-09-09T17:43:34;18.10;99.90
19880;DHT22;10102;50.828;4.416;2022-09-09T17:46:15;18.00;99.90
19880;DHT22;10102;50.828;4.416;2022-09-09T17:48:43;18.00;99.90
19880;DHT22;10102;50.828;4.416;2022-09-09T17:51:13;18.40;99.90
19880;DHT22;10102;50.828;4.416;2022-09-09T17:53:43;18.00;99.90
19880;DHT22;10102;50.828;4.416;2022-09-09T17:56:12;17.80;99.90
19880;DHT22;10102;50.828;4.416;2022-09-09T17:58:39;18.10;99.90
19880;DHT22;10102;50.828;4.416;2022-09-09T18:01:11;17.80;99.90
19880;DHT22;10102;50.828;4.416;2022-09-09T18:03:39;17.90;99.90
19880;DHT22;10102;50.828;4.416;2022-09-09T18:06:10;17.90;99.90
19880;DHT22;10102;50.828;4.416;2022-09-09T18:08:39;17.70;99.90
19880;DHT22;10102;50.828;4.416;2022-09-09T18:11:05;18.00;99.90
19880;DHT22;10102;50.828;4.416;2022-09-09T18:13:32;18.00;99.90
19880;DHT22;10102;50.828;4.416;2022-09-09T18:15:59;17.90;99.90
19880;DHT22;10102;50.828;4.416;2022-09-09T18:18:25;17.90;99.90
19880;DHT22;10102;50.828;4.416;2022-09-09T18:20:58;17.90;99.90
19880;DHT22;10102;50.828;4.416;2022-09-09T18:23:24;17.50;99.90
19880;DHT22;10102;50.828;4.416;2022-09-09T18:28:16;17.60;99.90
19880;DHT22;10102;50.828;4.416;2022-09-09T18:30:42;17.70;99.90
19880;DHT22;10102;50.828;4.416;2022-09-09T18:33:07;17.60;99.90
19880;DHT22;10102;50.828;4.416;2022-09-09T18:35:35;17.70;99.90
19880;DHT22;10102;50.828;4.416;2022-09-09T18:38:02;17.70;99.90
19880;DHT22;10102;50.828;4.416;2022-09-09T18:40:31;17.50;99.90
19880;DHT22;10102;50.828;4.416;2022-09-09T18:42:57;17.50;99.90
19880;DHT22;10102;50.828;4.416;2022-09-09T18:45:23;17.70;99.90
19880;DHT22;10102;50.828;4.416;2022-09-09T18:47:49;17.50;99.90
19880;DHT22;10102;50.828;4.416;2022-09-09T18:50:14;17.60;99.90
19880;DHT22;10102;50.828;4.416;2022-09-09T18:52:40;17.60;99.90